Nearby METAR Reports

 

KPMD - Palmdale, California, USA
Distance from station: NNE 12mi, 19km
Updated: Thu, 14-Dec-2017 7:53pm PST
Clear
Clear
 Wind from ESE
Wind: ESE 3 mph , 6 km/h
Temperature: 45°F , 7°C
Dew Point: 16°F , -9°C
Humidity: 31%
Barometer: 30.23 inHg , 1023.7 hPa
Clouds: Clear
Visibility: 10 miles , 16 km
2017/12/15 03:53 KPMD 150353Z AUTO 12003KT 10SM CLR 07/M09 A3023 RMK AO2 SLP242 T00721094 TSNO
KWJF - Lancaster/Fox, California, USA
Distance from station: N 17mi, 27km
Updated: Thu, 14-Dec-2017 7:56pm PST
Clear
Clear
 Wind from N
Wind: N 3 mph , 6 km/h
Temperature: 45°F , 7°C
Dew Point: 9°F , -13°C
Humidity: 23%
Barometer: 30.23 inHg , 1023.7 hPa
Clouds: Clear
Visibility: 10 miles , 16 km
2017/12/15 03:56 KWJF 150356Z 01003KT 10SM CLR 07/M13 A3023 RMK AO2 SLP254 T00671128
 
KMWS - Mount Wilson, California, USA
Distance from station: SSE 18mi, 30km
Updated: Wed, 13-May-2015 6:45am PDT
NOT Current

 Wind from S
Wind: S 3 mph , 6 km/h, Gust: 5 mph , 7 km/h
Temperature: 43°F , 6°C
Dew Point: -0°F , -18°C
Humidity: 16%
2015/05/13 13:45 KMWS 131345Z 18003G04KT 06/M18 RMK SNOW DEPTH 1.00
KWHP - La / Whiteman, California, USA
Distance from station: SW 21mi, 34km
Updated: Thu, 14-Dec-2017 7:53pm PST
Clear
Clear
 Wind from WNW
Wind: WNW 12 mph , 19 km/h
Temperature: 70°F , 21°C
Dew Point: 10°F , -12°C
Humidity: 10%
Barometer: 30.12 inHg , 1020 hPa
Clouds: Clear
Visibility: 10 miles , 16 km
2017/12/15 03:53 KWHP 150353Z 30010KT 10SM SKC 21/M12 A3012
 
KBUR - Burbank, California, USA
Distance from station: SSW 22mi, 35km
Updated: Thu, 14-Dec-2017 7:53pm PST
Clear
Clear
 Wind from NNE
Wind: NNE 9 mph , 15 km/h
Temperature: 75°F , 24°C
Dew Point: 1°F , -17°C
Humidity: 5%
Barometer: 30.06 inHg , 1017.9 hPa
Clouds: Clear
Visibility: 10 miles , 16 km
2017/12/15 03:53 KBUR 150353Z 02008KT 10SM CLR 24/M17 A3006 RMK AO2 SLP169 T02441167 $
KVNY - Van Nuys, California, USA
Distance from station: SW 25mi, 40km
Updated: Thu, 14-Dec-2017 7:51pm PST
Clear
Clear
 Wind from N
Wind: N 10 mph , 17 km/h
Temperature: 72°F , 22°C
Dew Point: 14°F , -10°C
Humidity: 11%
Barometer: 30.08 inHg , 1018.6 hPa
Clouds: Clear
Visibility: 10 miles , 16 km
2017/12/15 03:51 KVNY 150351Z 35009KT 10SM CLR 22/M10 A3008 RMK AO2 SLP181 T02171100
 
KEDW - Edwards Afb, California, USA
Distance from station: NNE 33mi, 53km
Updated: Thu, 14-Dec-2017 7:58pm PST
Mostly cloudy
Mostly cloudy
 Wind from N
Wind: N 7 mph , 11 km/h
Temperature: 48°F , 9°C
Wind Chill: 45°F , 7°C
Dew Point: 9°F , -13°C
Humidity: 20%
Barometer: 30.21 inHg , 1023 hPa
Clouds: Mostly cloudy
Visibility: 40 miles , 64 km
Cloud details: Few Clouds 20000 ft
Mostly cloudy 30000 ft
2017/12/15 03:58 KEDW 150358Z 36006KT 40SM FEW200 BKN300 09/M13 A3021 RMK AO2A SLP239 T00911127
KSMO - Santa Monica, California, USA
Distance from station: SSW 35mi, 57km
Updated: Thu, 14-Dec-2017 7:51pm PST
Mist, Clear
Mist, Clear
 Wind from calm
Wind: Calm
Temperature: 57°F , 14°C
Dew Point: 55°F , 13°C
Humidity: 94%
Barometer: 30.05 inHg , 1017.6 hPa
Summary: Mist
Clouds: Clear
Visibility: 6 miles , 10 km
2017/12/15 03:51 KSMO 150351Z 00000KT 6SM BR CLR 14/13 A3005 RMK AO2 SLP175 T01440133
 
KLAX - Los Angeles, California, USA
Distance from station: SSW 39mi, 63km
Updated: Thu, 14-Dec-2017 7:53pm PST
Few Clouds
Few Clouds
 Wind from SE
Wind: SE 8 mph , 13 km/h
Temperature: 63°F , 17°C
Dew Point: 52°F , 11°C
Humidity: 68%
Barometer: 30.05 inHg , 1017.6 hPa
Clouds: Few Clouds
Visibility: 10 miles , 16 km
Cloud details: Few Clouds 20000 ft
2017/12/15 03:53 KLAX 150353Z 13007KT 10SM FEW200 17/11 A3005 RMK AO2 SLP176 T01670111
KMHV - Mojave, California, USA
Distance from station: N 41mi, 66km
Updated: Thu, 14-Dec-2017 7:40pm PST
Clear
Clear
 Wind from WNW
Wind: WNW 5 mph , 7 km/h
Temperature: 48°F , 9°C
Wind Chill: 46°F , 8°C
Dew Point: 7°F , -14°C
Humidity: 18%
Barometer: 30.24 inHg , 1024 hPa
Clouds: Clear
Visibility: 10 miles , 16 km
2017/12/15 03:40 KMHV 150340Z AUTO 30004KT 10SM CLR 09/M14 A3024 RMK A01
 
KFUL - Fullerton, California, USA
Distance from station: SSE 44mi, 70km
Updated: Thu, 14-Dec-2017 7:53pm PST
Clear
Clear
 Wind from varies
Wind: varies 3 mph , 6 km/h
Temperature: 57°F , 14°C
Dew Point: 46°F , 8°C
Humidity: 67%
Barometer: 30.04 inHg , 1017.3 hPa
Clouds: Clear
Visibility: 9 miles , 14 km
2017/12/15 03:53 KFUL 150353Z VRB03KT 9SM CLR 14/08 A3004 RMK AO2 SLP172 T01440083
KONT - Ontario, California, USA
Distance from station: SE 45mi, 72km
Updated: Thu, 14-Dec-2017 7:53pm PST
Partly cloudy
Partly cloudy
 Wind from S
Wind: S 7 mph , 11 km/h, Gust: 21 mph , 33 km/h
Temperature: 79°F , 26°C
Dew Point: -6°F , -21°C
Humidity: 3%
Barometer: 30.06 inHg , 1017.9 hPa
Clouds: Partly cloudy
Visibility: 10 miles , 16 km
Cloud details: Partly cloudy 25000 ft
2017/12/15 03:53 KONT 150353Z 17006G18KT 10SM SCT250 26/M21 A3006 RMK AO2 SLP165 T02561211
 
KLGB - Long Beach, California, USA
Distance from station: S 46mi, 74km
Updated: Thu, 14-Dec-2017 7:53pm PST
Clear
Clear
 Wind from WNW
Wind: WNW 5 mph , 7 km/h
Temperature: 59°F , 15°C
Dew Point: 46°F , 8°C
Humidity: 63%
Barometer: 30.05 inHg , 1017.6 hPa
Clouds: Clear
Visibility: 9 miles , 14 km
2017/12/15 03:53 KLGB 150353Z 29004KT 9SM CLR 15/08 A3005 RMK AO2 SLP174 T01500078 $
KVCV - Victorville, California, USA
Distance from station: E 46mi, 74km
Updated: Wed, 13-Dec-2017 9:55am PST
NOT Current
Clear
Clear
 Wind from calm
Wind: Calm
Temperature: 64°F , 18°C
Dew Point: 27°F , -3°C
Humidity: 24%
Barometer: 30.17 inHg , 1021.7 hPa
Clouds: Clear
Visibility: 10 miles , 16 km
2017/12/13 17:55 KVCV 131755Z AUTO 00000KT 10SM CLR 18/M03 A3017 RMK TR
 
KTSP - Tehachapi, California, USA
Distance from station: NNW 48mi, 77km
Updated: Thu, 14-Dec-2017 8:15pm PST
Clear
Clear
 Wind from E
Wind: E 6 mph , 9 km/h
Temperature: 43°F , 6°C
Wind Chill: 39°F , 4°C
Dew Point: 7°F , -14°C
Humidity: 22%
Barometer: 30.29 inHg , 1025.7 hPa
Clouds: Clear
Visibility: 10 miles , 16 km
2017/12/15 04:15 KTSP 150415Z AUTO 09005KT 10SM CLR 06/M14 A3029 RMK AO2